createdAt,value
2019-05-20T00:02:23.558Z,22.85
2019-05-20T00:04:42.441Z,18.92
2019-05-20T00:07:10.834Z,19.35
2019-05-20T00:09:39.289Z,22.13
2019-05-20T00:12:07.658Z,18.73
2019-05-20T00:14:37.700Z,22.32
2019-05-20T00:17:06.084Z,22.13
2019-05-20T00:19:34.477Z,21.10
2019-05-20T00:22:02.853Z,25.77
2019-05-20T00:24:31.290Z,24.57
2019-05-20T00:26:59.737Z,22.50
2019-05-20T00:29:28.053Z,24.05
2019-05-20T00:31:56.533Z,22.13
2019-05-20T00:34:34.575Z,19.90
2019-05-20T00:36:54.930Z,18.37
2019-05-20T00:39:23.333Z,16.62
2019-05-20T00:41:51.808Z,19.30
2019-05-20T00:44:20.211Z,16.77
2019-05-20T00:46:48.674Z,18.45
2019-05-20T00:49:17.129Z,16.80
2019-05-20T00:51:45.517Z,21.85
2019-05-20T00:54:13.910Z,19.57
2019-05-20T00:56:42.493Z,19.75
2019-05-20T00:59:11.120Z,17.90
2019-05-20T01:01:39.606Z,19.20
2019-05-20T01:04:08.094Z,19.77
2019-05-20T01:06:36.519Z,18.07
2019-05-20T01:09:06.724Z,20.37
2019-05-20T01:11:35.062Z,21.25
2019-05-20T01:14:04.033Z,19.50
2019-05-20T01:16:32.404Z,18.60
2019-05-20T01:19:00.740Z,20.02
2019-05-20T01:21:29.174Z,19.80
2019-05-20T01:23:57.576Z,19.10
2019-05-20T01:26:25.958Z,20.57
2019-05-20T01:28:54.401Z,20.68
2019-05-20T01:31:22.890Z,20.50
2019-05-20T01:33:51.330Z,18.85
2019-05-20T01:36:19.744Z,23.92
2019-05-20T01:38:48.140Z,19.37
2019-05-20T01:41:16.551Z,20.20
2019-05-20T01:43:45.026Z,22.55
2019-05-20T01:46:13.373Z,20.32
2019-05-20T01:48:41.719Z,18.52
2019-05-20T01:51:10.259Z,19.05
2019-05-20T01:53:38.665Z,18.37
2019-05-20T01:56:07.221Z,20.15
2019-05-20T01:58:35.657Z,18.55
2019-05-20T02:01:04.078Z,17.82
2019-05-20T02:03:32.680Z,20.30
2019-05-20T02:06:01.200Z,20.20
2019-05-20T02:08:29.607Z,15.80
2019-05-20T02:10:58.054Z,20.30
2019-05-20T02:13:28.066Z,21.25
2019-05-20T02:16:01.256Z,18.45
2019-05-20T02:18:29.694Z,20.35
2019-05-20T02:20:58.068Z,22.75
2019-05-20T02:23:26.685Z,20.27
2019-05-20T02:25:55.064Z,19.42
2019-05-20T02:28:23.430Z,20.08
2019-05-20T02:30:56.204Z,20.50
2019-05-20T02:33:22.070Z,18.77
2019-05-20T02:35:50.485Z,21.02
2019-05-20T02:38:18.897Z,20.12
2019-05-20T02:40:47.303Z,20.90
2019-05-20T02:43:15.771Z,20.08
2019-05-20T02:45:44.326Z,18.65
2019-05-20T02:48:12.727Z,21.15
2019-05-20T02:50:41.103Z,19.45
2019-05-20T02:53:10.565Z,18.67
2019-05-20T02:55:38.955Z,21.77
2019-05-20T02:58:07.425Z,17.65
2019-05-20T03:00:35.789Z,18.77
2019-05-20T03:03:04.115Z,21.85
2019-05-20T03:05:32.522Z,19.50
2019-05-20T03:08:00.913Z,19.15
2019-05-20T03:10:29.315Z,20.43
2019-05-20T03:12:57.729Z,20.85
2019-05-20T03:15:26.132Z,21.33
2019-05-20T03:17:54.494Z,22.42
2019-05-20T03:20:22.916Z,23.45
2019-05-20T03:22:51.331Z,21.23
2019-05-20T03:25:19.730Z,18.23
2019-05-20T03:27:48.161Z,20.20
2019-05-20T03:30:17.759Z,15.83
2019-05-20T03:32:46.098Z,19.25
2019-05-20T03:35:14.544Z,18.90
2019-05-20T03:37:42.979Z,19.05
2019-05-20T03:40:11.360Z,18.52
2019-05-20T03:42:39.830Z,16.40
2019-05-20T03:45:09.047Z,14.58
2019-05-20T03:47:37.425Z,15.90
2019-05-20T03:50:07.272Z,15.58
2019-05-20T03:52:35.637Z,15.53
2019-05-20T03:55:06.614Z,13.80
2019-05-20T03:57:35.090Z,12.15
2019-05-20T04:00:04.686Z,12.00
2019-05-20T04:02:33.085Z,10.55
2019-05-20T04:05:03.180Z,9.95
2019-05-20T04:07:31.542Z,9.33
2019-05-20T04:10:00.019Z,11.53
2019-05-20T04:12:28.381Z,10.03
2019-05-20T04:14:56.749Z,9.18
2019-05-20T04:17:25.350Z,9.55
2019-05-20T04:19:53.724Z,8.20
2019-05-20T04:22:22.120Z,8.58
2019-05-20T04:24:50.539Z,7.75
2019-05-20T04:27:18.984Z,7.37
2019-05-20T04:29:47.372Z,6.90
2019-05-20T04:32:15.734Z,7.30
2019-05-20T04:34:44.188Z,7.70
2019-05-20T04:37:12.531Z,6.65
2019-05-20T04:39:40.939Z,7.03
2019-05-20T04:42:09.346Z,7.67
2019-05-20T04:44:37.759Z,7.10
2019-05-20T04:47:06.135Z,7.10
2019-05-20T04:49:34.538Z,7.83
2019-05-20T04:52:02.971Z,6.92
2019-05-20T04:54:31.421Z,8.35
2019-05-20T04:56:59.788Z,7.12
2019-05-20T04:59:28.115Z,6.85
2019-05-20T05:01:56.526Z,7.03
2019-05-20T05:04:24.965Z,6.95
2019-05-20T05:06:53.301Z,6.40
2019-05-20T05:09:21.722Z,6.70
2019-05-20T05:11:50.089Z,6.20
2019-05-20T05:14:18.474Z,6.40
2019-05-20T05:16:46.897Z,6.70
2019-05-20T05:19:15.310Z,6.45
2019-05-20T05:21:43.684Z,5.85
2019-05-20T05:24:12.145Z,5.60
2019-05-20T05:26:40.569Z,5.12
2019-05-20T05:29:09.043Z,4.35
2019-05-20T05:31:37.448Z,5.00
2019-05-20T05:34:05.769Z,5.22
2019-05-20T05:36:34.209Z,4.70
2019-05-20T05:39:02.671Z,4.22
2019-05-20T05:41:31.058Z,4.25
2019-05-20T05:43:59.479Z,3.65
2019-05-20T05:46:27.831Z,4.10
2019-05-20T05:48:56.323Z,3.17
2019-05-20T05:51:24.726Z,3.10
2019-05-20T05:53:53.100Z,2.45
2019-05-20T05:56:21.426Z,2.90
2019-05-20T05:58:49.823Z,2.98
2019-05-20T06:01:18.213Z,2.33
2019-05-20T06:03:46.581Z,2.08
2019-05-20T06:06:15.051Z,2.20
2019-05-20T06:08:43.385Z,2.20
2019-05-20T06:11:11.802Z,2.40
2019-05-20T06:13:40.261Z,2.10
2019-05-20T06:16:08.673Z,2.60
2019-05-20T06:18:37.001Z,3.05
2019-05-20T06:21:05.416Z,2.87
2019-05-20T06:23:33.840Z,4.00
2019-05-20T06:26:02.256Z,3.22
2019-05-20T06:28:30.633Z,4.08
2019-05-20T06:30:59.027Z,5.78
2019-05-20T06:33:27.449Z,5.37
2019-05-20T06:35:55.792Z,6.22
2019-05-20T06:38:34.906Z,5.92
2019-05-20T06:41:04.386Z,6.28
2019-05-20T06:43:32.784Z,6.35
2019-05-20T06:46:01.185Z,7.37
2019-05-20T06:48:29.550Z,6.08
2019-05-20T06:50:57.984Z,5.67
2019-05-20T06:53:27.580Z,5.92
2019-05-20T06:55:55.988Z,4.83
2019-05-20T06:58:24.355Z,4.67
2019-05-20T07:00:52.862Z,5.42
2019-05-20T07:03:21.213Z,5.45
2019-05-20T07:05:49.583Z,5.60
2019-05-20T07:08:19.092Z,5.75
2019-05-20T07:10:47.560Z,4.80
2019-05-20T07:13:16.475Z,4.70
2019-05-20T07:15:44.873Z,4.70
2019-05-20T07:18:13.431Z,5.00
2019-05-20T07:20:42.061Z,4.97
2019-05-20T07:23:10.447Z,5.42
2019-05-20T07:25:38.959Z,4.95
2019-05-20T07:28:07.346Z,5.60
2019-05-20T07:30:35.745Z,5.17
2019-05-20T07:33:04.199Z,5.50
2019-05-20T07:35:32.663Z,5.47
2019-05-20T07:38:01.159Z,5.37
2019-05-20T07:40:31.092Z,5.70
2019-05-20T07:42:59.541Z,6.25
2019-05-20T07:45:28.251Z,6.37
2019-05-20T07:47:56.616Z,6.20
2019-05-20T07:50:25.126Z,7.00
2019-05-20T07:52:53.526Z,6.78
2019-05-20T07:55:22.596Z,6.00
2019-05-20T07:57:50.994Z,7.28
2019-05-20T08:00:19.405Z,6.92
2019-05-20T08:02:47.806Z,7.87
2019-05-20T08:05:16.244Z,7.30
2019-05-20T08:07:51.766Z,7.58
2019-05-20T08:10:14.716Z,7.40
2019-05-20T08:12:43.142Z,7.10
2019-05-20T08:15:11.529Z,8.58
2019-05-20T08:17:39.985Z,8.18
2019-05-20T08:20:08.366Z,7.75
2019-05-20T08:22:36.771Z,7.72
2019-05-20T08:25:07.909Z,8.25
2019-05-20T08:27:36.266Z,7.83
2019-05-20T08:30:06.621Z,7.58
2019-05-20T08:32:35.064Z,6.22
2019-05-20T08:35:05.142Z,6.80
2019-05-20T08:37:44.918Z,7.10
2019-05-20T08:40:05.510Z,6.83
2019-05-20T08:42:35.025Z,7.75
2019-05-20T08:45:06.545Z,6.70
2019-05-20T08:47:36.039Z,7.25
2019-05-20T08:50:10.952Z,6.50
2019-05-20T08:52:38.000Z,7.30
2019-05-20T08:55:07.860Z,7.25
2019-05-20T08:57:36.437Z,7.17
2019-05-20T09:00:06.054Z,6.10
2019-05-20T09:02:35.501Z,6.20
2019-05-20T09:05:05.852Z,6.37
2019-05-20T09:07:34.464Z,5.80
2019-05-20T09:10:03.047Z,6.72
2019-05-20T09:12:31.482Z,6.65
2019-05-20T09:15:00.778Z,6.72
2019-05-20T09:17:29.618Z,5.85
2019-05-20T09:19:58.119Z,6.40
2019-05-20T09:22:26.746Z,5.95
2019-05-20T09:24:55.397Z,7.80
2019-05-20T09:27:25.924Z,6.12
2019-05-20T09:29:54.970Z,6.62
2019-05-20T09:32:23.967Z,5.70
2019-05-20T09:34:52.633Z,5.42
2019-05-20T09:37:21.207Z,6.35
2019-05-20T09:39:49.753Z,6.10
2019-05-20T09:42:18.246Z,6.20
2019-05-20T09:44:46.911Z,5.75
2019-05-20T09:47:16.582Z,6.30
2019-05-20T09:49:45.209Z,6.55
2019-05-20T09:52:13.833Z,5.60
2019-05-20T09:54:45.429Z,5.70
2019-05-20T09:57:12.838Z,6.00
2019-05-20T09:59:43.684Z,5.00
2019-05-20T10:02:11.607Z,4.58
2019-05-20T10:04:40.031Z,4.40
2019-05-20T10:07:08.729Z,4.60
2019-05-20T10:09:37.217Z,4.35
2019-05-20T10:12:05.775Z,4.05
2019-05-20T10:14:34.234Z,4.00
2019-05-20T10:17:03.175Z,3.67
2019-05-20T10:19:31.954Z,3.95
2019-05-20T10:22:00.444Z,4.50
2019-05-20T10:24:29.113Z,4.05
2019-05-20T10:26:57.512Z,3.70
2019-05-20T10:29:26.174Z,3.80
2019-05-20T10:31:54.648Z,4.33
2019-05-20T10:34:23.207Z,3.98
2019-05-20T10:36:51.692Z,3.77
2019-05-20T10:39:20.276Z,3.60
2019-05-20T10:41:48.701Z,3.10
2019-05-20T10:44:17.202Z,3.33
2019-05-20T10:46:45.625Z,4.03
2019-05-20T10:49:14.240Z,3.33
2019-05-20T10:51:43.624Z,3.10
2019-05-20T10:54:12.414Z,3.98
2019-05-20T10:56:41.912Z,3.80
2019-05-20T10:59:12.057Z,3.70
2019-05-20T11:01:40.654Z,3.75
2019-05-20T11:04:10.119Z,3.80
2019-05-20T11:06:39.459Z,3.37
2019-05-20T11:09:13.907Z,2.95
2019-05-20T11:11:39.516Z,2.70
2019-05-20T11:14:09.097Z,2.95
2019-05-20T11:16:37.549Z,3.35
2019-05-20T11:19:06.231Z,3.25
2019-05-20T11:21:34.906Z,2.60
2019-05-20T11:24:03.901Z,2.15
2019-05-20T11:26:32.485Z,2.17
2019-05-20T11:29:00.885Z,2.60
2019-05-20T11:31:29.541Z,3.15
2019-05-20T11:33:57.988Z,3.20
2019-05-20T11:36:26.497Z,3.77
2019-05-20T11:38:55.054Z,3.50
2019-05-20T11:41:51.316Z,4.05
2019-05-20T11:43:53.997Z,3.50
2019-05-20T11:46:22.379Z,3.80
2019-05-20T11:48:50.775Z,3.92
2019-05-20T11:51:19.328Z,3.47
2019-05-20T11:53:47.871Z,3.08
2019-05-20T11:56:16.263Z,3.60
2019-05-20T11:58:44.693Z,3.60
2019-05-20T12:01:13.243Z,3.50
2019-05-20T12:03:41.693Z,3.70
2019-05-20T12:06:10.096Z,3.50
2019-05-20T12:08:38.451Z,3.50
2019-05-20T12:11:06.954Z,3.87
2019-05-20T12:13:35.352Z,2.98
2019-05-20T12:16:03.742Z,3.70
2019-05-20T12:18:32.115Z,3.83
2019-05-20T12:21:00.572Z,3.70
2019-05-20T12:23:28.923Z,4.50
2019-05-20T12:25:57.379Z,5.12
2019-05-20T12:28:25.808Z,4.87
2019-05-20T12:30:54.232Z,4.58
2019-05-20T12:33:22.632Z,4.40
2019-05-20T12:35:51.177Z,4.30
2019-05-20T12:38:19.601Z,4.25
2019-05-20T12:40:47.998Z,5.53
2019-05-20T12:43:16.500Z,5.58
2019-05-20T12:45:44.918Z,6.45
2019-05-20T12:48:13.336Z,6.42
2019-05-20T12:50:41.867Z,5.78
2019-05-20T12:53:10.220Z,6.28
2019-05-20T12:58:06.108Z,6.83
2019-05-20T13:00:34.717Z,6.22
2019-05-20T13:03:03.123Z,6.45
2019-05-20T13:05:31.552Z,7.03
2019-05-20T13:08:00.058Z,6.42
2019-05-20T13:10:31.807Z,6.22
2019-05-20T13:12:58.704Z,6.05
2019-05-20T13:15:27.338Z,5.58
2019-05-20T13:17:55.823Z,5.85
2019-05-20T13:20:24.388Z,5.42
2019-05-20T13:22:52.886Z,4.97
2019-05-20T13:25:21.378Z,6.67
2019-05-20T13:27:49.852Z,6.62
2019-05-20T13:30:18.300Z,5.70
2019-05-20T13:32:46.695Z,5.97
2019-05-20T13:35:15.120Z,5.78
2019-05-20T13:37:43.560Z,5.20
2019-05-20T13:40:12.574Z,4.97
2019-05-20T13:42:40.978Z,4.25
2019-05-20T13:45:09.416Z,4.75
2019-05-20T13:47:37.893Z,3.98
2019-05-20T13:50:08.231Z,5.08
2019-05-20T13:52:36.697Z,4.62
2019-05-20T13:55:06.100Z,5.67
2019-05-20T13:57:34.534Z,4.50
2019-05-20T14:00:03.056Z,3.80
2019-05-20T14:02:31.574Z,4.25
2019-05-20T14:04:59.971Z,4.05
2019-05-20T14:07:28.400Z,3.67
2019-05-20T14:09:56.954Z,3.45
2019-05-20T14:12:25.285Z,3.58
2019-05-20T14:14:53.682Z,4.33
2019-05-20T14:17:22.098Z,3.65
2019-05-20T14:19:50.447Z,3.30
2019-05-20T14:22:18.789Z,3.40
2019-05-20T14:24:47.138Z,3.72
2019-05-20T14:27:15.498Z,4.20
2019-05-20T14:29:43.876Z,3.55
2019-05-20T14:32:12.304Z,3.80
2019-05-20T14:34:40.657Z,4.10
2019-05-20T14:37:08.930Z,4.30
2019-05-20T14:39:37.378Z,4.50
2019-05-20T14:42:05.912Z,3.83
2019-05-20T14:44:34.397Z,3.85
2019-05-20T14:47:02.825Z,3.52
2019-05-20T14:49:31.227Z,4.00
2019-05-20T14:51:59.546Z,3.62
2019-05-20T14:54:27.945Z,3.40
2019-05-20T14:56:56.400Z,3.58
2019-05-20T14:59:24.832Z,3.30
2019-05-20T15:01:53.264Z,2.83
2019-05-20T15:04:22.096Z,3.30
2019-05-20T15:06:50.468Z,3.10
2019-05-20T15:09:18.881Z,2.70
2019-05-20T15:11:47.345Z,3.02
2019-05-20T15:14:15.675Z,2.55
2019-05-20T15:16:44.025Z,2.40
2019-05-20T15:19:12.342Z,2.20
2019-05-20T15:21:40.685Z,1.80
2019-05-20T15:24:09.094Z,1.60
2019-05-20T15:26:37.493Z,1.70
2019-05-20T15:29:06.329Z,1.27
2019-05-20T15:31:34.698Z,3.33
2019-05-20T15:34:02.980Z,0.70
2019-05-20T15:36:31.432Z,0.62
2019-05-20T15:38:59.866Z,0.90
2019-05-20T15:41:28.429Z,0.70
2019-05-20T15:43:56.776Z,0.60
2019-05-20T15:46:25.242Z,0.50
2019-05-20T15:48:53.641Z,0.70
2019-05-20T15:51:22.128Z,0.30
2019-05-20T15:53:50.562Z,0.50
2019-05-20T15:56:19.243Z,0.30
2019-05-20T15:58:47.723Z,0.42
2019-05-20T16:01:16.159Z,0.40
2019-05-20T16:03:44.554Z,0.50
2019-05-20T16:06:12.934Z,0.30
2019-05-20T16:08:41.291Z,0.40
2019-05-20T16:11:09.747Z,0.50
2019-05-20T16:13:38.263Z,0.35
2019-05-20T16:16:06.639Z,0.40
2019-05-20T16:18:34.997Z,0.30
2019-05-20T16:21:03.405Z,1.98
2019-05-20T16:23:31.819Z,0.50
2019-05-20T16:26:00.167Z,0.55
2019-05-20T16:28:28.607Z,0.50
2019-05-20T16:30:56.998Z,0.50
2019-05-20T16:33:25.418Z,0.40
2019-05-20T16:35:53.772Z,0.53
2019-05-20T16:38:22.072Z,0.50
2019-05-20T16:40:50.480Z,0.40
2019-05-20T16:43:18.899Z,0.40
2019-05-20T16:45:47.310Z,0.47
2019-05-20T16:48:15.661Z,0.60
2019-05-20T16:50:44.028Z,0.50
2019-05-20T16:53:12.394Z,0.42
2019-05-20T16:55:40.808Z,0.33
2019-05-20T16:58:09.252Z,0.50
2019-05-20T17:00:37.621Z,0.70
2019-05-20T17:03:06.018Z,0.60
2019-05-20T17:05:34.501Z,0.70
2019-05-20T17:08:02.874Z,0.72
2019-05-20T17:10:31.286Z,0.53
2019-05-20T17:12:59.675Z,0.55
2019-05-20T17:15:29.723Z,0.60
2019-05-20T17:17:58.063Z,0.80
2019-05-20T17:20:26.362Z,0.50
2019-05-20T17:22:54.813Z,0.65
2019-05-20T17:25:23.180Z,0.70
2019-05-20T17:27:51.729Z,0.57
2019-05-20T17:30:20.084Z,0.90
2019-05-20T17:32:48.447Z,0.80
2019-05-20T17:35:16.961Z,1.00
2019-05-20T17:37:45.394Z,1.20
2019-05-20T17:40:14.045Z,1.30
2019-05-20T17:42:42.514Z,1.30
2019-05-20T17:45:11.255Z,1.27
2019-05-20T17:47:39.663Z,1.40
2019-05-20T17:50:09.099Z,1.12
2019-05-20T17:52:37.582Z,0.75
2019-05-20T17:55:06.492Z,0.80
2019-05-20T17:57:34.898Z,1.00
2019-05-20T18:00:05.874Z,0.90
2019-05-20T18:02:34.342Z,1.10
2019-05-20T18:05:03.311Z,1.00
2019-05-20T18:07:31.682Z,1.00
2019-05-20T18:10:00.160Z,1.30
2019-05-20T18:12:28.545Z,0.93
2019-05-20T18:14:58.535Z,0.90
2019-05-20T18:17:26.992Z,0.90
2019-05-20T18:19:55.341Z,0.90
2019-05-20T18:22:23.814Z,1.20
2019-05-20T18:24:52.223Z,1.17
2019-05-20T18:27:20.596Z,2.15
2019-05-20T18:29:48.999Z,1.40
2019-05-20T18:32:17.470Z,2.30
2019-05-20T18:34:45.904Z,2.92
2019-05-20T18:37:14.350Z,2.00
2019-05-20T18:39:42.778Z,1.35
2019-05-20T18:42:11.194Z,1.10
2019-05-20T18:44:39.539Z,1.00
2019-05-20T18:47:08.011Z,1.80
2019-05-20T18:49:36.374Z,1.50
2019-05-20T18:52:04.764Z,1.10
2019-05-20T18:54:33.241Z,0.88
2019-05-20T18:57:01.643Z,0.90
2019-05-20T18:59:30.077Z,0.80
2019-05-20T19:02:05.028Z,1.10
2019-05-20T19:04:28.536Z,1.00
2019-05-20T19:06:56.927Z,0.90
2019-05-20T19:09:25.367Z,0.90
2019-05-20T19:11:53.798Z,0.75
2019-05-20T19:14:22.264Z,0.82
2019-05-20T19:16:50.784Z,0.80
2019-05-20T19:19:19.167Z,1.00
2019-05-20T19:21:47.495Z,0.72
2019-05-20T19:24:15.931Z,1.00
2019-05-20T19:26:48.942Z,1.20
2019-05-20T19:29:17.389Z,0.85
2019-05-20T19:31:45.743Z,0.80
2019-05-20T19:34:14.319Z,1.00
2019-05-20T19:36:42.804Z,1.30
2019-05-20T19:39:11.237Z,1.20
2019-05-20T19:41:39.679Z,1.40
2019-05-20T19:44:07.427Z,1.20
2019-05-20T19:46:35.835Z,1.40
2019-05-20T19:49:04.318Z,1.45
2019-05-20T19:51:32.729Z,1.45
2019-05-20T19:54:01.145Z,71.62
2019-05-20T19:56:29.675Z,2.42
2019-05-20T19:58:58.094Z,6.90
2019-05-20T20:01:26.550Z,2.37
2019-05-20T20:03:55.091Z,1.30
2019-05-20T20:06:23.535Z,1.00
2019-05-20T20:08:51.952Z,1.20
2019-05-20T20:11:20.331Z,1.00
2019-05-20T20:13:48.729Z,1.05
2019-05-20T20:16:18.108Z,1.10
2019-05-20T20:18:46.809Z,1.12
2019-05-20T20:21:15.330Z,0.80
2019-05-20T20:23:43.705Z,1.10
2019-05-20T20:26:13.188Z,1.30
2019-05-20T20:28:41.618Z,1.12
2019-05-20T20:31:11.052Z,1.10
2019-05-20T20:33:39.651Z,0.75
2019-05-20T20:36:08.136Z,1.00
2019-05-20T20:38:36.715Z,1.00
2019-05-20T20:41:06.224Z,0.90
2019-05-20T20:43:34.805Z,0.90
2019-05-20T20:46:03.323Z,1.00
2019-05-20T20:48:31.789Z,1.00
2019-05-20T20:51:00.187Z,0.90
2019-05-20T20:53:28.592Z,1.00
2019-05-20T20:55:57.154Z,0.90
2019-05-20T20:58:25.641Z,0.60
2019-05-20T21:00:54.031Z,1.05
2019-05-20T21:03:22.422Z,0.90
2019-05-20T21:05:50.926Z,1.00
2019-05-20T21:08:19.318Z,1.00
2019-05-20T21:10:47.787Z,1.10
2019-05-20T21:13:16.250Z,1.20
2019-05-20T21:15:44.753Z,1.30
2019-05-20T21:18:13.176Z,1.98
2019-05-20T21:20:41.636Z,1.72
2019-05-20T21:23:10.102Z,1.30
2019-05-20T21:25:38.447Z,1.00
2019-05-20T21:28:06.883Z,1.20
2019-05-20T21:33:09.271Z,0.95
2019-05-20T21:35:34.559Z,1.20
2019-05-20T21:38:02.961Z,0.93
2019-05-20T21:40:31.361Z,1.10
2019-05-20T21:42:59.759Z,1.30
2019-05-20T21:45:28.156Z,1.35
2019-05-20T21:47:56.542Z,1.37
2019-05-20T21:50:24.973Z,1.80
2019-05-20T21:52:53.369Z,1.40
2019-05-20T21:55:21.728Z,1.05
2019-05-20T21:57:50.177Z,1.10
2019-05-20T22:00:21.187Z,1.30
2019-05-20T22:02:49.709Z,1.10
2019-05-20T22:05:18.065Z,1.20
2019-05-20T22:07:46.485Z,0.90
2019-05-20T22:10:14.885Z,1.30
2019-05-20T22:12:43.242Z,1.00
2019-05-20T22:15:11.651Z,1.20
2019-05-20T22:17:41.889Z,1.02
2019-05-20T22:20:10.258Z,0.95
2019-05-20T22:22:46.692Z,1.60
2019-05-20T22:25:14.154Z,3.22
2019-05-20T22:27:42.677Z,3.00
2019-05-20T22:30:30.654Z,2.90
2019-05-20T22:32:59.354Z,3.05
2019-05-20T22:35:27.866Z,2.85
2019-05-20T22:37:56.381Z,3.20
2019-05-20T22:40:24.754Z,3.05
2019-05-20T22:42:54.394Z,3.17
2019-05-20T22:45:22.819Z,2.45
2019-05-20T22:47:51.362Z,2.15
2019-05-20T22:50:19.821Z,2.00
2019-05-20T22:52:48.446Z,2.20
2019-05-20T22:55:17.295Z,2.27
2019-05-20T22:57:45.713Z,2.30
2019-05-20T23:00:14.218Z,2.10
2019-05-20T23:02:42.642Z,2.60
2019-05-20T23:05:11.002Z,2.25
2019-05-20T23:07:39.391Z,2.52
2019-05-20T23:10:07.895Z,2.62
2019-05-20T23:12:37.227Z,2.80
2019-05-20T23:15:06.635Z,2.42
2019-05-20T23:17:35.017Z,2.20
2019-05-20T23:20:05.596Z,2.52
2019-05-20T23:22:34.030Z,2.87
2019-05-20T23:25:02.467Z,2.87
2019-05-20T23:27:30.853Z,3.22
2019-05-20T23:29:59.338Z,3.08
2019-05-20T23:32:27.777Z,3.40
2019-05-20T23:34:56.125Z,3.37
2019-05-20T23:37:26.519Z,3.50
2019-05-20T23:39:54.946Z,4.03
2019-05-20T23:42:23.343Z,4.58
2019-05-20T23:44:51.703Z,4.22
2019-05-20T23:47:20.104Z,4.90
2019-05-20T23:49:48.408Z,4.17
2019-05-20T23:52:16.846Z,4.67
2019-05-20T23:54:45.288Z,4.92
2019-05-20T23:57:13.950Z,5.28
2019-05-20T23:59:42.350Z,4.70
